createdAt,value
2018-12-24T00:01:39.314Z,97369.45
2018-12-24T00:04:07.760Z,97381.06
2018-12-24T00:06:36.347Z,97373.41
2018-12-24T00:09:06.439Z,97362.66
2018-12-24T00:11:34.875Z,97361.09
2018-12-24T00:14:03.438Z,97366.09
2018-12-24T00:16:31.914Z,97347.45
2018-12-24T00:19:00.368Z,97340.89
2018-12-24T00:21:28.791Z,97332.93
2018-12-24T00:23:57.269Z,97351.57
2018-12-24T00:26:25.713Z,97324.18
2018-12-24T00:28:54.158Z,97335.62
2018-12-24T00:31:22.591Z,97304.23
2018-12-24T00:33:51.034Z,97307.95
2018-12-24T00:36:19.445Z,97287.73
2018-12-24T00:38:47.920Z,97302.39
2018-12-24T00:41:16.354Z,97298.39
2018-12-24T00:43:44.800Z,97299.56
2018-12-24T00:46:13.224Z,97306.98
2018-12-24T00:48:41.668Z,97290.23
2018-12-24T00:51:10.135Z,97292.96
2018-12-24T00:53:38.579Z,97295.41
2018-12-24T00:56:07.031Z,97285.08
2018-12-24T00:58:35.469Z,97297.63
2018-12-24T01:01:03.934Z,97284.06
2018-12-24T01:03:32.348Z,97288.12
2018-12-24T01:06:00.824Z,97274.03
2018-12-24T01:08:29.354Z,97278.80
2018-12-24T01:10:57.842Z,97275.06
2018-12-24T01:13:26.259Z,97271.17
2018-12-24T01:18:47.135Z,97281.05
2018-12-24T01:21:15.584Z,97266.86
2018-12-24T01:23:43.992Z,97248.23
2018-12-24T01:26:12.445Z,97250.08
2018-12-24T01:28:40.865Z,97235.91
2018-12-24T01:31:09.306Z,97220.55
2018-12-24T01:33:37.688Z,97246.08
2018-12-24T01:36:06.135Z,97204.27
2018-12-24T01:38:34.547Z,97177.66
2018-12-24T01:41:03.003Z,97197.35
2018-12-24T01:43:31.433Z,97187.83
2018-12-24T01:45:59.908Z,97180.91
2018-12-24T01:48:28.335Z,97268.84
2018-12-24T01:50:56.791Z,97295.95
2018-12-24T01:53:25.222Z,97328.05
2018-12-24T01:55:53.659Z,97332.19
2018-12-24T01:58:22.083Z,97334.88
2018-12-24T02:00:50.518Z,97316.33
2018-12-24T02:03:18.947Z,97324.18
2018-12-24T02:05:47.392Z,97319.76
2018-12-24T02:08:15.831Z,97331.80
2018-12-24T02:10:44.307Z,97331.75
2018-12-24T02:13:12.727Z,97353.26
2018-12-24T02:15:41.192Z,97350.31
2018-12-24T02:21:02.044Z,97388.11
2018-12-24T02:26:25.104Z,97397.61
2018-12-24T02:28:53.593Z,97395.47
2018-12-24T02:40:01.291Z,97373.09
2018-12-24T02:42:29.728Z,97375.69
2018-12-24T02:44:58.356Z,97381.36
2018-12-24T02:47:26.830Z,97392.61
2018-12-24T02:49:55.281Z,97415.67
2018-12-24T02:52:23.825Z,97430.08
2018-12-24T02:54:52.248Z,97440.12
2018-12-24T02:57:20.710Z,97437.66
2018-12-24T02:59:49.117Z,97447.92
2018-12-24T03:02:17.547Z,97451.02
2018-12-24T03:04:45.981Z,97446.81
2018-12-24T03:07:14.428Z,97450.13
2018-12-24T03:09:42.847Z,97449.78
2018-12-24T03:12:11.286Z,97457.48
2018-12-24T03:14:39.704Z,97464.83
2018-12-24T03:17:08.217Z,97475.36
2018-12-24T03:19:36.698Z,97495.48
2018-12-24T03:22:05.155Z,97507.23
2018-12-24T03:24:33.578Z,97508.30
2018-12-24T03:27:02.076Z,97503.35
2018-12-24T03:29:30.601Z,97481.51
2018-12-24T03:31:59.065Z,97478.34
2018-12-24T03:34:27.608Z,97478.75
2018-12-24T03:36:56.011Z,97487.93
2018-12-24T03:39:24.447Z,97533.22
2018-12-24T03:41:52.859Z,97540.04
2018-12-24T03:44:21.292Z,97540.54
2018-12-24T03:46:49.685Z,97562.05
2018-12-24T03:49:18.132Z,97574.33
2018-12-24T03:51:46.527Z,97592.62
2018-12-24T03:54:14.961Z,97593.74
2018-12-24T03:56:43.372Z,97593.64
2018-12-24T03:59:11.819Z,97613.38
2018-12-24T04:01:40.232Z,97612.86
2018-12-24T04:04:08.684Z,97614.59
2018-12-24T04:06:37.101Z,97606.45
2018-12-24T04:09:06.812Z,97616.03
2018-12-24T04:11:35.229Z,97614.09
2018-12-24T04:14:03.689Z,97623.94
2018-12-24T04:16:32.144Z,97650.87
2018-12-24T04:19:00.597Z,97660.00
2018-12-24T04:21:29.004Z,97663.78
2018-12-24T04:23:57.440Z,97666.02
2018-12-24T04:26:25.865Z,97683.15
2018-12-24T04:28:54.320Z,97713.25
2018-12-24T04:31:22.728Z,97722.48
2018-12-24T04:33:51.167Z,97745.02
2018-12-24T04:36:19.600Z,97760.73
2018-12-24T04:38:48.022Z,97777.11
2018-12-24T04:41:16.451Z,97781.16
2018-12-24T04:43:44.878Z,97777.56
2018-12-24T04:46:13.304Z,97784.56
2018-12-24T04:48:41.766Z,97786.58
2018-12-24T04:51:10.183Z,97794.20
2018-12-24T04:53:38.616Z,97814.72
2018-12-24T04:56:07.031Z,97825.97
2018-12-24T04:58:35.501Z,97841.27
2018-12-24T05:01:03.952Z,97865.91
2018-12-24T05:03:32.413Z,97896.13
2018-12-24T05:06:00.820Z,97912.59
2018-12-24T05:08:29.231Z,97909.13
2018-12-24T05:10:57.708Z,97909.71
2018-12-24T05:13:26.120Z,97927.44
2018-12-24T05:15:54.583Z,97936.48
2018-12-24T05:18:22.999Z,97944.40
2018-12-24T05:20:51.431Z,97948.70
2018-12-24T05:23:19.834Z,97952.36
2018-12-24T05:25:48.249Z,97958.13
2018-12-24T05:28:16.649Z,97968.23
2018-12-24T05:30:45.090Z,97982.19
2018-12-24T05:33:13.505Z,97989.61
2018-12-24T05:35:41.924Z,97993.47
2018-12-24T05:38:10.328Z,98014.95
2018-12-24T05:40:38.775Z,98017.33
2018-12-24T05:43:07.193Z,98028.37
2018-12-24T05:45:35.647Z,98045.20
2018-12-24T05:48:04.111Z,98051.16
2018-12-24T05:50:32.657Z,98065.70
2018-12-24T05:53:01.068Z,98085.07
2018-12-24T05:55:29.538Z,98098.81
2018-12-24T05:57:58.028Z,98103.69
2018-12-24T06:00:26.459Z,98115.40
2018-12-24T06:02:54.941Z,98119.63
2018-12-24T06:05:23.404Z,98125.42
2018-12-24T06:07:51.819Z,98133.19
2018-12-24T06:10:20.588Z,98137.70
2018-12-24T06:12:49.073Z,98140.67
2018-12-24T06:15:17.599Z,98146.05
2018-12-24T06:17:46.041Z,98160.27
2018-12-24T06:20:14.479Z,98165.56
2018-12-24T06:22:42.893Z,98173.50
2018-12-24T06:25:11.361Z,98192.30
2018-12-24T06:27:39.777Z,98201.19
2018-12-24T06:30:08.245Z,98223.27
2018-12-24T06:32:36.812Z,98225.52
2018-12-24T06:35:05.539Z,98244.77
2018-12-24T06:37:34.284Z,98251.34
2018-12-24T06:40:02.857Z,98256.41
2018-12-24T06:42:31.413Z,98259.51
2018-12-24T06:45:00.027Z,98270.65
2018-12-24T06:47:29.643Z,98276.08
2018-12-24T06:49:58.155Z,98278.09
2018-12-24T06:52:27.068Z,98288.98
2018-12-24T06:54:56.131Z,98297.73
2018-12-24T06:57:24.736Z,98319.12
2018-12-24T06:59:53.479Z,98338.17
2018-12-24T07:02:21.933Z,98354.64
2018-12-24T07:04:50.378Z,98356.16
2018-12-24T07:07:18.836Z,98371.45
2018-12-24T07:09:47.263Z,98382.70
2018-12-24T07:12:25.513Z,98389.72
2018-12-24T07:14:53.919Z,98388.69
2018-12-24T07:17:22.409Z,98402.87
2018-12-24T07:19:50.847Z,98401.03
2018-12-24T07:22:19.278Z,98413.27
2018-12-24T07:24:47.708Z,98422.77
2018-12-24T07:27:16.230Z,98425.97
2018-12-24T07:29:44.632Z,98445.11
2018-12-24T07:32:13.072Z,98456.07
2018-12-24T07:34:41.632Z,98454.44
2018-12-24T07:40:02.916Z,98478.80
2018-12-24T07:42:32.542Z,98482.45
2018-12-24T07:47:53.292Z,98497.63
2018-12-24T07:50:21.758Z,98504.88
2018-12-24T07:52:50.250Z,98511.95
2018-12-24T07:55:18.720Z,98511.77
2018-12-24T07:57:47.204Z,98516.22
2018-12-24T08:03:10.179Z,98541.95
2018-12-24T08:08:31.272Z,98564.52
2018-12-24T08:10:59.704Z,98559.38
2018-12-24T08:13:28.293Z,98569.57
2018-12-24T08:15:56.833Z,98575.98
2018-12-24T08:18:25.323Z,98576.27
2018-12-24T08:20:53.789Z,98588.19
2018-12-24T08:23:22.305Z,98595.92
2018-12-24T08:25:50.868Z,98606.65
2018-12-24T08:28:20.821Z,98616.63
2018-12-24T08:30:49.364Z,98624.19
2018-12-24T08:33:17.839Z,98642.93
2018-12-24T08:35:46.309Z,98643.73
2018-12-24T08:38:15.788Z,98651.67
2018-12-24T08:40:46.164Z,98656.78
2018-12-24T08:43:15.121Z,98661.04
2018-12-24T08:45:43.563Z,98663.02
2018-12-24T08:48:12.384Z,98669.05
2018-12-24T08:50:40.819Z,98680.41
2018-12-24T08:53:14.764Z,98684.84
2018-12-24T08:55:43.207Z,98697.88
2018-12-24T08:58:11.687Z,98702.98
2018-12-24T09:00:40.159Z,98699.30
2018-12-24T09:03:08.619Z,98695.63
2018-12-24T09:05:37.103Z,98711.50
2018-12-24T09:08:05.548Z,98708.30
2018-12-24T09:10:34.051Z,98720.53
2018-12-24T09:13:02.497Z,98722.33
2018-12-24T09:15:30.963Z,98726.79
2018-12-24T09:17:59.443Z,98737.42
2018-12-24T09:20:27.908Z,98745.91
2018-12-24T09:30:25.670Z,98765.63
2018-12-24T09:32:54.877Z,98768.55
2018-12-24T09:35:24.155Z,98772.42
2018-12-24T09:37:53.370Z,98775.50
2018-12-24T09:40:22.677Z,98787.33
2018-12-24T09:42:51.940Z,98793.64
2018-12-24T09:45:21.163Z,98798.02
2018-12-24T09:47:50.419Z,98799.89
2018-12-24T09:52:54.428Z,98797.47
2018-12-24T09:55:23.905Z,98796.16
2018-12-24T09:57:53.127Z,98796.22
2018-12-24T10:00:22.385Z,98808.88
2018-12-24T10:03:00.971Z,98813.44
2018-12-24T10:05:30.601Z,98820.08
2018-12-24T10:08:02.944Z,98823.92
2018-12-24T10:10:32.539Z,98829.50
2018-12-24T10:13:01.767Z,98835.77
2018-12-24T10:15:31.017Z,98832.72
2018-12-24T10:18:00.293Z,98837.62
2018-12-24T10:20:29.572Z,98837.49
2018-12-24T10:22:58.819Z,98836.47
2018-12-24T10:25:28.089Z,98844.78
2018-12-24T10:27:57.343Z,98846.80
2018-12-24T10:30:26.631Z,98845.75
2018-12-24T10:32:55.862Z,98831.23
2018-12-24T10:35:25.085Z,98833.09
2018-12-24T10:37:54.355Z,98852.20
2018-12-24T10:40:23.571Z,98859.34
2018-12-24T10:42:52.827Z,98865.23
2018-12-24T10:45:22.082Z,98865.69
2018-12-24T10:47:51.346Z,98870.28
2018-12-24T10:50:20.563Z,98873.52
2018-12-24T10:52:49.823Z,98868.63
2018-12-24T10:55:19.061Z,98875.64
2018-12-24T10:57:48.321Z,98857.16
2018-12-24T11:00:17.550Z,98871.05
2018-12-24T11:02:46.799Z,98866.36
2018-12-24T11:05:16.019Z,98861.19
2018-12-24T11:07:45.294Z,98876.75
2018-12-24T11:10:14.521Z,98866.44
2018-12-24T11:12:43.789Z,98872.72
2018-12-24T11:15:13.973Z,98873.89
2018-12-24T11:17:43.272Z,98880.56
2018-12-24T11:20:12.482Z,98881.50
2018-12-24T11:22:41.799Z,98881.84
2018-12-24T11:25:11.050Z,98891.15
2018-12-24T11:27:40.306Z,98894.35
2018-12-24T11:30:09.521Z,98896.66
2018-12-24T11:32:38.797Z,98908.07
2018-12-24T11:35:08.022Z,98913.03
2018-12-24T11:37:37.292Z,98913.55
2018-12-24T11:40:06.578Z,98912.73
2018-12-24T11:42:35.846Z,98904.95
2018-12-24T11:45:05.205Z,98912.81
2018-12-24T11:47:34.489Z,98910.33
2018-12-24T11:50:03.778Z,98911.70
2018-12-24T11:52:33.169Z,98917.84
2018-12-24T11:55:02.413Z,98916.09
2018-12-24T11:57:31.686Z,98913.87
2018-12-24T12:00:00.968Z,98929.84
2018-12-24T12:05:25.777Z,98929.34
2018-12-24T12:07:55.049Z,98937.02
2018-12-24T12:10:24.279Z,98940.41
2018-12-24T12:12:53.549Z,98949.49
2018-12-24T12:15:22.775Z,98952.95
2018-12-24T12:17:52.101Z,98956.16
2018-12-24T12:20:22.828Z,98951.02
2018-12-24T12:22:52.322Z,98952.95
2018-12-24T12:25:21.546Z,98953.39
2018-12-24T12:27:50.763Z,98957.64
2018-12-24T12:30:20.026Z,98958.39
2018-12-24T12:32:49.237Z,98964.52
2018-12-24T12:35:18.489Z,98972.10
2018-12-24T12:37:47.701Z,98974.42
2018-12-24T12:40:16.975Z,98977.88
2018-12-24T12:42:46.196Z,98977.74
2018-12-24T12:45:15.455Z,98980.14
2018-12-24T12:47:44.680Z,98977.91
2018-12-24T12:50:32.997Z,98974.92
2018-12-24T12:53:02.226Z,98974.50
2018-12-24T12:55:31.486Z,98986.16
2018-12-24T12:58:00.708Z,98995.03
2018-12-24T13:00:29.991Z,98996.84
2018-12-24T13:02:59.228Z,99011.09
2018-12-24T13:05:28.500Z,99021.75
2018-12-24T13:07:57.727Z,99030.41
2018-12-24T13:10:26.990Z,99049.09
2018-12-24T13:12:56.213Z,99048.31
2018-12-24T13:15:25.474Z,99056.33
2018-12-24T13:17:54.754Z,99064.11
2018-12-24T13:20:25.131Z,99077.16
2018-12-24T13:22:54.993Z,99084.59
2018-12-24T13:25:24.285Z,99085.06
2018-12-24T13:27:53.507Z,99094.31
2018-12-24T13:30:22.826Z,99094.16
2018-12-24T13:32:52.057Z,99093.81
2018-12-24T13:35:21.389Z,99086.89
2018-12-24T13:37:50.621Z,99086.05
2018-12-24T13:40:19.877Z,99095.58
2018-12-24T13:42:49.100Z,99102.52
2018-12-24T13:45:18.358Z,99105.94
2018-12-24T13:47:47.575Z,99100.69
2018-12-24T13:50:16.827Z,99102.81
2018-12-24T13:52:46.049Z,99099.97
2018-12-24T13:55:15.402Z,99103.61
2018-12-24T13:57:44.685Z,99105.97
2018-12-24T14:00:13.941Z,99112.89
2018-12-24T14:02:43.176Z,99113.61
2018-12-24T14:05:12.430Z,99129.30
2018-12-24T14:07:41.650Z,99130.98
2018-12-24T14:10:10.917Z,99135.39
2018-12-24T14:12:40.137Z,99140.34
2018-12-24T14:15:09.413Z,99146.63
2018-12-24T14:17:38.713Z,99146.58
2018-12-24T14:20:08.366Z,99154.67
2018-12-24T14:22:37.602Z,99154.14
2018-12-24T14:25:06.889Z,99155.09
2018-12-24T14:27:36.104Z,99174.27
2018-12-24T14:30:06.862Z,99172.54
2018-12-24T14:32:36.076Z,99173.86
2018-12-24T14:35:05.535Z,99178.20
2018-12-24T14:37:34.750Z,99179.58
2018-12-24T14:40:04.018Z,99190.45
2018-12-24T14:42:33.246Z,99190.63
2018-12-24T14:45:02.520Z,99194.55
2018-12-24T14:47:31.728Z,99193.16
2018-12-24T14:50:00.980Z,99197.30
2018-12-24T14:52:30.202Z,99199.80
2018-12-24T14:54:59.465Z,99207.41
2018-12-24T14:57:28.691Z,99209.53
2018-12-24T14:59:57.950Z,99214.33
2018-12-24T15:02:27.161Z,99219.15
2018-12-24T15:04:56.419Z,99217.80
2018-12-24T15:07:25.636Z,99215.80
2018-12-24T15:09:54.894Z,99222.41
2018-12-24T15:12:24.115Z,99231.14
2018-12-24T15:14:53.378Z,99234.14
2018-12-24T15:17:22.644Z,99243.71
2018-12-24T15:19:51.890Z,99249.93
2018-12-24T15:22:21.141Z,99251.67
2018-12-24T15:24:50.423Z,99259.53
2018-12-24T15:27:19.641Z,99264.33
2018-12-24T15:29:48.870Z,99265.64
2018-12-24T15:32:18.132Z,99273.12
2018-12-24T15:34:47.343Z,99278.05
2018-12-24T15:37:16.636Z,99288.92
2018-12-24T15:39:45.877Z,99289.70
2018-12-24T15:42:15.143Z,99291.06
2018-12-24T15:44:44.372Z,99297.56
2018-12-24T15:47:13.682Z,99304.04
2018-12-24T15:50:02.082Z,99305.33
2018-12-24T15:52:31.440Z,99304.30
2018-12-24T15:55:00.637Z,99306.72
2018-12-24T15:57:29.905Z,99315.72
2018-12-24T15:59:59.124Z,99313.53
2018-12-24T16:02:28.452Z,99317.60
2018-12-24T16:04:57.619Z,99316.04
2018-12-24T16:07:26.909Z,99320.96
2018-12-24T16:09:56.136Z,99326.59
2018-12-24T16:12:25.414Z,99326.44
2018-12-24T16:14:54.646Z,99343.00
2018-12-24T16:17:23.957Z,99334.64
2018-12-24T16:19:53.173Z,99343.09
2018-12-24T16:22:22.441Z,99349.25
2018-12-24T16:24:51.661Z,99352.77
2018-12-24T16:27:20.927Z,99347.65
2018-12-24T16:29:50.150Z,99344.20
2018-12-24T16:32:19.409Z,99345.17
2018-12-24T16:34:48.633Z,99346.81
2018-12-24T16:37:17.885Z,99343.20
2018-12-24T16:39:47.118Z,99346.20
2018-12-24T16:42:16.386Z,99344.56
2018-12-24T16:44:45.603Z,99350.52
2018-12-24T16:47:14.868Z,99351.84
2018-12-24T16:49:44.092Z,99350.88
2018-12-24T16:52:13.375Z,99350.72
2018-12-24T16:54:42.614Z,99354.97
2018-12-24T16:57:11.875Z,99347.37
2018-12-24T16:59:41.098Z,99347.97
2018-12-24T17:02:10.358Z,99338.41
2018-12-24T17:04:39.590Z,99351.45
2018-12-24T17:07:08.935Z,99351.53
2018-12-24T17:09:38.152Z,99355.38
2018-12-24T17:12:07.435Z,99352.41
2018-12-24T17:14:36.643Z,99364.73
2018-12-24T17:17:07.824Z,99359.94
2018-12-24T17:19:37.010Z,99363.21
2018-12-24T17:22:06.309Z,99364.81
2018-12-24T17:24:35.601Z,99372.32
2018-12-24T17:27:04.936Z,99371.27
2018-12-24T17:29:34.191Z,99367.63
2018-12-24T17:34:51.872Z,99366.40
2018-12-24T17:37:21.088Z,99379.44
2018-12-24T17:39:51.143Z,99386.67
2018-12-24T17:45:44.307Z,99399.06
2018-12-24T17:51:09.963Z,99400.59
2018-12-24T17:53:39.275Z,99404.53
2018-12-24T17:56:08.495Z,99411.77
2018-12-24T17:58:37.799Z,99416.57
2018-12-24T18:01:07.024Z,99409.27
2018-12-24T18:03:36.242Z,99412.73
2018-12-24T18:06:05.549Z,99413.38
2018-12-24T18:08:34.769Z,99420.48
2018-12-24T18:11:04.179Z,99416.11
2018-12-24T18:13:33.350Z,99411.37
2018-12-24T18:16:02.604Z,99416.16
2018-12-24T18:18:31.871Z,99418.17
2018-12-24T18:21:01.141Z,99423.50
2018-12-24T18:23:30.378Z,99420.50
2018-12-24T18:25:59.667Z,99423.77
2018-12-24T18:28:31.290Z,99416.64
2018-12-24T18:31:00.551Z,99418.83
2018-12-24T18:33:29.766Z,99419.36
2018-12-24T18:35:59.024Z,99422.53
2018-12-24T18:38:28.243Z,99426.16
2018-12-24T18:40:57.511Z,99432.34
2018-12-24T18:43:26.733Z,99426.64
2018-12-24T18:45:56.008Z,99422.37
2018-12-24T18:48:25.229Z,99419.59
2018-12-24T18:50:54.489Z,99423.83
2018-12-24T18:53:23.701Z,99427.35
2018-12-24T18:55:52.961Z,99432.48
2018-12-24T18:58:22.183Z,99431.26
2018-12-24T19:00:51.437Z,99434.53
2018-12-24T19:03:20.664Z,99440.46
2018-12-24T19:05:49.934Z,99446.77
2018-12-24T19:08:19.161Z,99456.53
2018-12-24T19:10:48.419Z,99462.98
2018-12-24T19:13:17.640Z,99462.44
2018-12-24T19:15:46.913Z,99473.77
2018-12-24T19:18:16.219Z,99465.53
2018-12-24T19:20:45.495Z,99466.09
2018-12-24T19:23:33.708Z,99472.30
2018-12-24T19:26:02.970Z,99468.20
2018-12-24T19:28:32.201Z,99470.30
2018-12-24T19:31:01.476Z,99477.63
2018-12-24T19:33:30.739Z,99484.45
2018-12-24T19:36:00.000Z,99482.59
2018-12-24T19:38:29.221Z,99493.47
2018-12-24T19:40:58.488Z,99497.36
2018-12-24T19:43:27.722Z,99497.02
2018-12-24T19:45:57.004Z,99498.75
2018-12-24T19:48:26.321Z,99493.13
2018-12-24T19:50:55.576Z,99512.89
2018-12-24T19:53:24.792Z,99518.66
2018-12-24T19:55:55.061Z,99518.34
2018-12-24T19:58:25.025Z,99516.44
2018-12-24T20:00:54.294Z,99518.02
2018-12-24T20:03:23.527Z,99529.32
2018-12-24T20:05:52.910Z,99532.17
2018-12-24T20:08:22.114Z,99531.52
2018-12-24T20:10:51.325Z,99535.47
2018-12-24T20:13:20.598Z,99531.44
2018-12-24T20:15:49.825Z,99515.45
2018-12-24T20:18:19.221Z,99512.67
2018-12-24T20:20:48.771Z,99503.30
2018-12-24T20:23:18.234Z,99506.45
2018-12-24T20:25:47.818Z,99512.59
2018-12-24T20:28:17.633Z,99514.70
2018-12-24T20:30:47.216Z,99516.56
2018-12-24T20:33:16.814Z,99513.23
2018-12-24T20:35:46.294Z,99519.42
2018-12-24T20:38:15.875Z,99524.92
2018-12-24T20:40:45.310Z,99516.17
2018-12-24T20:45:51.060Z,99531.06
2018-12-24T20:48:20.623Z,99536.09
2018-12-24T20:50:50.152Z,99527.27
2018-12-24T20:53:19.551Z,99538.80
2018-12-24T20:56:07.993Z,99541.51
2018-12-24T20:58:37.473Z,99538.54
2018-12-24T21:01:06.831Z,99548.17
2018-12-24T21:03:36.269Z,99556.84
2018-12-24T21:06:24.842Z,99562.73
2018-12-24T21:08:54.386Z,99571.59
2018-12-24T21:11:23.841Z,99574.45
2018-12-24T21:13:53.351Z,99567.59
2018-12-24T21:16:22.895Z,99574.59
2018-12-24T21:18:52.453Z,99578.66
2018-12-24T21:21:21.898Z,99579.06
2018-12-24T21:23:51.442Z,99578.58
2018-12-24T21:26:39.914Z,99574.63
2018-12-24T21:29:09.583Z,99577.30
2018-12-24T21:31:39.045Z,99580.34
2018-12-24T21:34:08.633Z,99585.45
2018-12-24T21:36:38.087Z,99595.16
2018-12-24T21:39:08.065Z,99592.67
2018-12-24T21:41:37.565Z,99599.11
2018-12-24T21:44:06.977Z,99593.69
2018-12-24T21:46:55.558Z,99597.97
2018-12-24T21:49:36.721Z,99599.50
2018-12-24T21:55:07.787Z,99610.59
2018-12-24T21:57:37.442Z,99606.34
2018-12-24T22:00:49.061Z,99604.11
2018-12-24T22:03:19.044Z,99600.77
2018-12-24T22:05:48.758Z,99600.11
2018-12-24T22:08:18.322Z,99593.70
2018-12-24T22:10:48.097Z,99602.59
2018-12-24T22:13:18.064Z,99602.30
2018-12-24T22:19:02.286Z,99604.91
2018-12-24T22:21:31.935Z,99608.17
2018-12-24T22:24:01.809Z,99606.27
2018-12-24T22:26:31.366Z,99601.47
2018-12-24T22:29:01.540Z,99606.48
2018-12-24T22:31:31.460Z,99602.31
2018-12-24T22:34:01.416Z,99610.36
2018-12-24T22:36:31.344Z,99624.16
2018-12-24T22:39:01.511Z,99623.52
2018-12-24T22:42:10.257Z,99635.23
2018-12-24T22:44:40.161Z,99637.94
2018-12-24T22:47:10.219Z,99638.86
2018-12-24T22:49:40.049Z,99643.22
2018-12-24T22:52:09.603Z,99637.43
2018-12-24T22:54:39.394Z,99647.09
2018-12-24T23:03:07.801Z,99655.77
2018-12-24T23:05:37.767Z,99664.72
2018-12-24T23:08:07.367Z,99678.11
2018-12-24T23:10:36.959Z,99674.09
2018-12-24T23:13:06.719Z,99689.77
2018-12-24T23:15:36.275Z,99694.92
2018-12-24T23:18:06.162Z,99711.92
2018-12-24T23:20:35.709Z,99711.16
2018-12-24T23:23:05.285Z,99720.02
2018-12-24T23:25:35.175Z,99719.87
2018-12-24T23:28:04.994Z,99725.16
2018-12-24T23:30:34.829Z,99720.80
2018-12-24T23:33:04.672Z,99721.40
2018-12-24T23:35:34.302Z,99722.45
2018-12-24T23:38:04.076Z,99725.86
2018-12-24T23:40:33.991Z,99714.40
2018-12-24T23:43:03.637Z,99720.92
2018-12-24T23:45:32.894Z,99721.83
2018-12-24T23:48:02.121Z,99723.21
2018-12-24T23:50:31.384Z,99725.23
2018-12-24T23:53:00.611Z,99726.27
2018-12-24T23:55:29.878Z,99734.53
2018-12-24T23:57:59.093Z,99735.44
